sensor_id;sensor_type;location;lat;lon;timestamp;temperature;humidity
12977;DHT22;6553;48.412;9.514;2023-07-13T00:01:58;24.70;73.20
12977;DHT22;6553;48.412;9.514;2023-07-13T00:04:25;24.70;73.20
12977;DHT22;6553;48.412;9.514;2023-07-13T00:06:51;24.70;73.20
12977;DHT22;6553;48.412;9.514;2023-07-13T00:09:18;24.70;73.10
12977;DHT22;6553;48.412;9.514;2023-07-13T00:11:45;24.80;73.30
12977;DHT22;6553;48.412;9.514;2023-07-13T00:14:15;24.70;73.20
12977;DHT22;6553;48.412;9.514;2023-07-13T00:16:41;24.70;73.20
12977;DHT22;6553;48.412;9.514;2023-07-13T00:19:11;24.70;73.20
12977;DHT22;6553;48.412;9.514;2023-07-13T00:21:39;24.80;73.30
12977;DHT22;6553;48.412;9.514;2023-07-13T00:24:06;24.70;73.10
12977;DHT22;6553;48.412;9.514;2023-07-13T00:26:33;24.70;73.20
12977;DHT22;6553;48.412;9.514;2023-07-13T00:28:59;24.70;73.20
12977;DHT22;6553;48.412;9.514;2023-07-13T00:31:25;24.70;73.20
12977;DHT22;6553;48.412;9.514;2023-07-13T00:33:51;24.70;73.20
12977;DHT22;6553;48.412;9.514;2023-07-13T00:36:17;24.70;73.20
12977;DHT22;6553;48.412;9.514;2023-07-13T00:38:45;24.70;73.20
12977;DHT22;6553;48.412;9.514;2023-07-13T00:41:11;24.70;73.20
12977;DHT22;6553;48.412;9.514;2023-07-13T00:43:37;24.70;73.20
12977;DHT22;6553;48.412;9.514;2023-07-13T00:48:53;24.70;73.10
12977;DHT22;6553;48.412;9.514;2023-07-13T00:51:27;24.70;73.20
12977;DHT22;6553;48.412;9.514;2023-07-13T00:53:59;24.70;73.20
12977;DHT22;6553;48.412;9.514;2023-07-13T00:56:30;24.70;73.20
12977;DHT22;6553;48.412;9.514;2023-07-13T00:59:00;24.70;73.10
12977;DHT22;6553;48.412;9.514;2023-07-13T01:01:28;24.70;73.20
12977;DHT22;6553;48.412;9.514;2023-07-13T01:03:54;24.60;73.00
12977;DHT22;6553;48.412;9.514;2023-07-13T01:06:20;24.70;73.10
12977;DHT22;6553;48.412;9.514;2023-07-13T01:08:46;24.70;73.10
12977;DHT22;6553;48.412;9.514;2023-07-13T01:11:12;24.70;73.10
12977;DHT22;6553;48.412;9.514;2023-07-13T01:13:45;24.60;73.00
12977;DHT22;6553;48.412;9.514;2023-07-13T01:16:32;24.70;73.10
12977;DHT22;6553;48.412;9.514;2023-07-13T01:18:59;24.70;73.10
12977;DHT22;6553;48.412;9.514;2023-07-13T01:21:31;24.60;73.00
12977;DHT22;6553;48.412;9.514;2023-07-13T01:23:59;24.60;73.00
12977;DHT22;6553;48.412;9.514;2023-07-13T01:26:25;24.60;73.00
12977;DHT22;6553;48.412;9.514;2023-07-13T01:28:51;24.60;73.00
12977;DHT22;6553;48.412;9.514;2023-07-13T01:31:17;24.60;73.00
12977;DHT22;6553;48.412;9.514;2023-07-13T01:33:43;24.60;73.00
12977;DHT22;6553;48.412;9.514;2023-07-13T01:36:10;24.60;73.00
12977;DHT22;6553;48.412;9.514;2023-07-13T01:38:37;24.60;73.00
12977;DHT22;6553;48.412;9.514;2023-07-13T01:41:03;24.70;73.00
12977;DHT22;6553;48.412;9.514;2023-07-13T01:43:29;24.60;72.90
12977;DHT22;6553;48.412;9.514;2023-07-13T01:45:55;24.60;72.90
12977;DHT22;6553;48.412;9.514;2023-07-13T01:48:21;24.70;73.00
12977;DHT22;6553;48.412;9.514;2023-07-13T01:50:48;24.60;72.90
12977;DHT22;6553;48.412;9.514;2023-07-13T01:53:14;24.60;72.90
12977;DHT22;6553;48.412;9.514;2023-07-13T01:55:41;24.60;72.90
12977;DHT22;6553;48.412;9.514;2023-07-13T01:58:07;24.60;72.90
12977;DHT22;6553;48.412;9.514;2023-07-13T02:00:33;24.60;72.80
12977;DHT22;6553;48.412;9.514;2023-07-13T02:03:01;24.60;72.80
12977;DHT22;6553;48.412;9.514;2023-07-13T02:05:27;24.60;72.80
12977;DHT22;6553;48.412;9.514;2023-07-13T02:07:53;24.60;72.80
12977;DHT22;6553;48.412;9.514;2023-07-13T02:10:19;24.60;72.80
12977;DHT22;6553;48.412;9.514;2023-07-13T02:12:45;24.60;72.70
12977;DHT22;6553;48.412;9.514;2023-07-13T02:15:11;24.60;72.70
12977;DHT22;6553;48.412;9.514;2023-07-13T02:17:37;24.60;72.70
12977;DHT22;6553;48.412;9.514;2023-07-13T02:20:04;24.60;72.70
12977;DHT22;6553;48.412;9.514;2023-07-13T02:22:31;24.60;72.60
12977;DHT22;6553;48.412;9.514;2023-07-13T02:24:57;24.60;72.60
12977;DHT22;6553;48.412;9.514;2023-07-13T02:27:23;24.60;72.60
12977;DHT22;6553;48.412;9.514;2023-07-13T02:29:49;24.60;72.60
12977;DHT22;6553;48.412;9.514;2023-07-13T02:32:17;24.60;72.50
12977;DHT22;6553;48.412;9.514;2023-07-13T02:34:43;24.60;72.50
12977;DHT22;6553;48.412;9.514;2023-07-13T02:37:09;24.60;72.40
12977;DHT22;6553;48.412;9.514;2023-07-13T02:39:35;24.60;72.40
12977;DHT22;6553;48.412;9.514;2023-07-13T02:42:03;24.60;72.40
12977;DHT22;6553;48.412;9.514;2023-07-13T02:44:29;24.50;72.40
12977;DHT22;6553;48.412;9.514;2023-07-13T02:46:55;24.60;72.50
12977;DHT22;6553;48.412;9.514;2023-07-13T02:49:21;24.50;72.30
12977;DHT22;6553;48.412;9.514;2023-07-13T02:51:47;24.50;72.20
12977;DHT22;6553;48.412;9.514;2023-07-13T02:54:13;24.50;72.20
12977;DHT22;6553;48.412;9.514;2023-07-13T02:56:40;24.50;72.20
12977;DHT22;6553;48.412;9.514;2023-07-13T02:59:06;24.50;72.10
12977;DHT22;6553;48.412;9.514;2023-07-13T03:01:32;24.50;72.10
12977;DHT22;6553;48.412;9.514;2023-07-13T03:04:01;24.60;72.20
12977;DHT22;6553;48.412;9.514;2023-07-13T03:06:28;24.50;72.10
12977;DHT22;6553;48.412;9.514;2023-07-13T03:08:56;24.50;72.10
12977;DHT22;6553;48.412;9.514;2023-07-13T03:11:23;24.50;72.00
12977;DHT22;6553;48.412;9.514;2023-07-13T03:13:55;24.50;71.90
12977;DHT22;6553;48.412;9.514;2023-07-13T03:16:23;24.50;71.90
12977;DHT22;6553;48.412;9.514;2023-07-13T03:18:51;24.50;71.80
12977;DHT22;6553;48.412;9.514;2023-07-13T03:21:17;24.50;71.80
12977;DHT22;6553;48.412;9.514;2023-07-13T03:23:43;24.50;71.80
12977;DHT22;6553;48.412;9.514;2023-07-13T03:26:12;24.50;71.80
12977;DHT22;6553;48.412;9.514;2023-07-13T03:28:41;24.50;71.80
12977;DHT22;6553;48.412;9.514;2023-07-13T03:31:21;24.50;71.80
12977;DHT22;6553;48.412;9.514;2023-07-13T03:33:49;24.50;72.60
12977;DHT22;6553;48.412;9.514;2023-07-13T03:36:26;24.50;71.90
12977;DHT22;6553;48.412;9.514;2023-07-13T03:38:58;24.40;71.70
12977;DHT22;6553;48.412;9.514;2023-07-13T03:41:33;24.50;71.80
12977;DHT22;6553;48.412;9.514;2023-07-13T03:43:59;24.50;71.80
12977;DHT22;6553;48.412;9.514;2023-07-13T03:46:26;24.40;71.70
12977;DHT22;6553;48.412;9.514;2023-07-13T03:48:53;24.50;71.80
12977;DHT22;6553;48.412;9.514;2023-07-13T03:51:19;24.40;71.70
12977;DHT22;6553;48.412;9.514;2023-07-13T03:53:46;24.40;71.60
12977;DHT22;6553;48.412;9.514;2023-07-13T03:56:16;24.40;71.70
12977;DHT22;6553;48.412;9.514;2023-07-13T03:58:46;24.50;71.80
12977;DHT22;6553;48.412;9.514;2023-07-13T04:01:18;24.50;71.80
12977;DHT22;6553;48.412;9.514;2023-07-13T04:03:45;24.50;72.60
12977;DHT22;6553;48.412;9.514;2023-07-13T04:06:18;24.50;71.80
12977;DHT22;6553;48.412;9.514;2023-07-13T04:08:51;24.40;71.70
12977;DHT22;6553;48.412;9.514;2023-07-13T04:11:21;24.40;71.70
12977;DHT22;6553;48.412;9.514;2023-07-13T04:13:49;24.40;71.70
12977;DHT22;6553;48.412;9.514;2023-07-13T04:16:17;24.40;72.40
12977;DHT22;6553;48.412;9.514;2023-07-13T04:18:45;24.40;72.30
12977;DHT22;6553;48.412;9.514;2023-07-13T04:21:13;24.40;71.60
12977;DHT22;6553;48.412;9.514;2023-07-13T04:23:39;24.40;71.60
12977;DHT22;6553;48.412;9.514;2023-07-13T04:26:06;24.40;71.60
12977;DHT22;6553;48.412;9.514;2023-07-13T04:28:33;24.40;71.60
12977;DHT22;6553;48.412;9.514;2023-07-13T04:30:59;24.40;71.50
12977;DHT22;6553;48.412;9.514;2023-07-13T04:33:26;24.40;71.60
12977;DHT22;6553;48.412;9.514;2023-07-13T04:35:54;24.40;71.50
12977;DHT22;6553;48.412;9.514;2023-07-13T04:38:28;24.40;71.60
12977;DHT22;6553;48.412;9.514;2023-07-13T04:41:01;24.40;71.50
12977;DHT22;6553;48.412;9.514;2023-07-13T04:43:29;24.40;71.50
12977;DHT22;6553;48.412;9.514;2023-07-13T04:45:57;24.40;71.60
12977;DHT22;6553;48.412;9.514;2023-07-13T04:48:27;24.40;71.50
12977;DHT22;6553;48.412;9.514;2023-07-13T04:50:57;24.40;71.50
12977;DHT22;6553;48.412;9.514;2023-07-13T04:53:25;24.40;71.50
12977;DHT22;6553;48.412;9.514;2023-07-13T04:55:52;24.40;71.40
12977;DHT22;6553;48.412;9.514;2023-07-13T04:58:18;24.40;72.20
12977;DHT22;6553;48.412;9.514;2023-07-13T05:00:44;24.40;71.40
12977;DHT22;6553;48.412;9.514;2023-07-13T05:03:09;24.40;71.50
12977;DHT22;6553;48.412;9.514;2023-07-13T05:05:35;24.40;71.50
12977;DHT22;6553;48.412;9.514;2023-07-13T05:08:01;24.40;71.50
12977;DHT22;6553;48.412;9.514;2023-07-13T05:10:27;24.40;71.40
12977;DHT22;6553;48.412;9.514;2023-07-13T05:12:53;24.40;71.40
12977;DHT22;6553;48.412;9.514;2023-07-13T05:15:22;24.40;71.40
12977;DHT22;6553;48.412;9.514;2023-07-13T05:17:49;24.40;71.30
12977;DHT22;6553;48.412;9.514;2023-07-13T05:20:16;24.40;71.30
12977;DHT22;6553;48.412;9.514;2023-07-13T05:22:43;24.40;71.30
12977;DHT22;6553;48.412;9.514;2023-07-13T05:25:10;24.40;71.30
12977;DHT22;6553;48.412;9.514;2023-07-13T05:27:36;24.40;71.10
12977;DHT22;6553;48.412;9.514;2023-07-13T05:30:03;24.40;71.10
12977;DHT22;6553;48.412;9.514;2023-07-13T05:32:29;24.40;71.10
12977;DHT22;6553;48.412;9.514;2023-07-13T05:34:55;24.40;71.10
12977;DHT22;6553;48.412;9.514;2023-07-13T05:37:21;24.40;71.00
12977;DHT22;6553;48.412;9.514;2023-07-13T05:39:47;24.40;71.10
12977;DHT22;6553;48.412;9.514;2023-07-13T05:42:13;24.40;71.80
12977;DHT22;6553;48.412;9.514;2023-07-13T05:44:39;24.40;71.00
12977;DHT22;6553;48.412;9.514;2023-07-13T05:47:05;24.40;70.90
12977;DHT22;6553;48.412;9.514;2023-07-13T05:49:31;24.40;70.90
12977;DHT22;6553;48.412;9.514;2023-07-13T05:51:57;24.30;70.70
12977;DHT22;6553;48.412;9.514;2023-07-13T05:54:23;24.30;70.70
12977;DHT22;6553;48.412;9.514;2023-07-13T05:56:49;24.30;70.70
12977;DHT22;6553;48.412;9.514;2023-07-13T05:59:14;24.40;70.80
12977;DHT22;6553;48.412;9.514;2023-07-13T06:01:41;24.30;70.70
12977;DHT22;6553;48.412;9.514;2023-07-13T06:04:07;24.30;70.70
12977;DHT22;6553;48.412;9.514;2023-07-13T06:06:33;24.30;70.70
12977;DHT22;6553;48.412;9.514;2023-07-13T06:08:58;24.30;70.60
12977;DHT22;6553;48.412;9.514;2023-07-13T06:11:26;24.40;70.80
12977;DHT22;6553;48.412;9.514;2023-07-13T06:13:53;24.40;70.60
12977;DHT22;6553;48.412;9.514;2023-07-13T06:16:19;24.40;70.50
12977;DHT22;6553;48.412;9.514;2023-07-13T06:18:46;24.40;70.50
12977;DHT22;6553;48.412;9.514;2023-07-13T06:21:22;24.40;70.50
12977;DHT22;6553;48.412;9.514;2023-07-13T06:23:50;24.30;70.40
12977;DHT22;6553;48.412;9.514;2023-07-13T06:26:19;24.40;70.50
12977;DHT22;6553;48.412;9.514;2023-07-13T06:28:46;24.40;70.50
12977;DHT22;6553;48.412;9.514;2023-07-13T06:31:12;24.40;70.50
12977;DHT22;6553;48.412;9.514;2023-07-13T06:33:39;24.40;70.50
12977;DHT22;6553;48.412;9.514;2023-07-13T06:36:06;24.40;70.50
12977;DHT22;6553;48.412;9.514;2023-07-13T06:38:33;24.40;70.50
12977;DHT22;6553;48.412;9.514;2023-07-13T06:41:00;24.40;70.50
12977;DHT22;6553;48.412;9.514;2023-07-13T06:43:25;24.40;70.50
12977;DHT22;6553;48.412;9.514;2023-07-13T06:45:54;24.40;70.40
12977;DHT22;6553;48.412;9.514;2023-07-13T06:48:21;24.40;70.40
12977;DHT22;6553;48.412;9.514;2023-07-13T06:50:49;24.40;70.30
12977;DHT22;6553;48.412;9.514;2023-07-13T06:53:15;24.40;70.20
12977;DHT22;6553;48.412;9.514;2023-07-13T06:55:44;24.40;70.20
12977;DHT22;6553;48.412;9.514;2023-07-13T06:58:15;24.40;70.10
12977;DHT22;6553;48.412;9.514;2023-07-13T07:00:42;24.40;70.00
12977;DHT22;6553;48.412;9.514;2023-07-13T07:03:08;24.40;70.00
12977;DHT22;6553;48.412;9.514;2023-07-13T07:05:33;24.40;69.90
12977;DHT22;6553;48.412;9.514;2023-07-13T07:07:59;24.40;69.70
12977;DHT22;6553;48.412;9.514;2023-07-13T07:10:26;24.40;69.50
12977;DHT22;6553;48.412;9.514;2023-07-13T07:12:52;24.40;69.70
12977;DHT22;6553;48.412;9.514;2023-07-13T07:15:18;24.40;69.50
12977;DHT22;6553;48.412;9.514;2023-07-13T07:17:44;24.40;69.60
12977;DHT22;6553;48.412;9.514;2023-07-13T07:20:10;24.40;69.50
12977;DHT22;6553;48.412;9.514;2023-07-13T07:22:36;24.40;69.50
12977;DHT22;6553;48.412;9.514;2023-07-13T07:25:02;24.40;69.40
12977;DHT22;6553;48.412;9.514;2023-07-13T07:27:28;24.40;69.20
12977;DHT22;6553;48.412;9.514;2023-07-13T07:29:54;24.40;69.30
12977;DHT22;6553;48.412;9.514;2023-07-13T07:32:20;24.40;69.20
12977;DHT22;6553;48.412;9.514;2023-07-13T07:34:46;24.40;69.20
12977;DHT22;6553;48.412;9.514;2023-07-13T07:37:14;24.40;69.20
12977;DHT22;6553;48.412;9.514;2023-07-13T07:39:40;24.40;69.00
12977;DHT22;6553;48.412;9.514;2023-07-13T07:42:07;24.40;68.90
12977;DHT22;6553;48.412;9.514;2023-07-13T07:44:33;24.40;69.00
12977;DHT22;6553;48.412;9.514;2023-07-13T07:47:00;24.40;68.90
12977;DHT22;6553;48.412;9.514;2023-07-13T07:49:26;24.40;68.90
12977;DHT22;6553;48.412;9.514;2023-07-13T07:51:52;24.40;68.70
12977;DHT22;6553;48.412;9.514;2023-07-13T07:54:18;24.40;68.50
12977;DHT22;6553;48.412;9.514;2023-07-13T07:56:44;24.40;68.50
12977;DHT22;6553;48.412;9.514;2023-07-13T07:59:10;24.40;68.40
12977;DHT22;6553;48.412;9.514;2023-07-13T08:01:36;24.40;68.30
12977;DHT22;6553;48.412;9.514;2023-07-13T08:04:02;24.40;68.20
12977;DHT22;6553;48.412;9.514;2023-07-13T08:06:28;24.50;68.10
12977;DHT22;6553;48.412;9.514;2023-07-13T08:08:54;24.40;67.70
12977;DHT22;6553;48.412;9.514;2023-07-13T08:11:21;24.40;67.80
12977;DHT22;6553;48.412;9.514;2023-07-13T08:13:47;24.40;67.90
12977;DHT22;6553;48.412;9.514;2023-07-13T08:16:13;24.40;67.80
12977;DHT22;6553;48.412;9.514;2023-07-13T08:18:39;24.40;68.00
12977;DHT22;6553;48.412;9.514;2023-07-13T08:21:05;24.50;68.50
12977;DHT22;6553;48.412;9.514;2023-07-13T08:23:32;24.50;67.60
12977;DHT22;6553;48.412;9.514;2023-07-13T08:25:59;24.40;67.50
12977;DHT22;6553;48.412;9.514;2023-07-13T08:28:27;24.40;67.40
12977;DHT22;6553;48.412;9.514;2023-07-13T08:30:53;24.40;67.00
12977;DHT22;6553;48.412;9.514;2023-07-13T08:33:20;24.50;67.30
12977;DHT22;6553;48.412;9.514;2023-07-13T08:35:49;24.50;67.20
12977;DHT22;6553;48.412;9.514;2023-07-13T08:38:17;24.50;67.10
12977;DHT22;6553;48.412;9.514;2023-07-13T08:40:44;24.50;67.30
12977;DHT22;6553;48.412;9.514;2023-07-13T08:43:20;24.50;67.00
12977;DHT22;6553;48.412;9.514;2023-07-13T08:45:54;24.50;66.90
12977;DHT22;6553;48.412;9.514;2023-07-13T08:48:28;24.50;67.00
12977;DHT22;6553;48.412;9.514;2023-07-13T08:51:22;24.50;66.60
12977;DHT22;6553;48.412;9.514;2023-07-13T08:54:01;24.50;67.10
12977;DHT22;6553;48.412;9.514;2023-07-13T08:56:30;24.50;66.70
12977;DHT22;6553;48.412;9.514;2023-07-13T08:59:12;24.50;66.80
12977;DHT22;6553;48.412;9.514;2023-07-13T09:04:56;24.60;66.70
12977;DHT22;6553;48.412;9.514;2023-07-13T09:07:46;24.60;66.70
12977;DHT22;6553;48.412;9.514;2023-07-13T09:10:17;24.60;66.70
12977;DHT22;6553;48.412;9.514;2023-07-13T09:13:05;24.60;66.80
12977;DHT22;6553;48.412;9.514;2023-07-13T09:15:43;24.60;66.60
12977;DHT22;6553;48.412;9.514;2023-07-13T09:18:11;24.60;66.60
12977;DHT22;6553;48.412;9.514;2023-07-13T09:20:54;24.70;67.50
12977;DHT22;6553;48.412;9.514;2023-07-13T09:23:27;24.60;66.40
12977;DHT22;6553;48.412;9.514;2023-07-13T09:26:18;24.60;66.70
12977;DHT22;6553;48.412;9.514;2023-07-13T09:29:06;24.70;66.80
12977;DHT22;6553;48.412;9.514;2023-07-13T09:31:55;24.60;66.70
12977;DHT22;6553;48.412;9.514;2023-07-13T09:34:25;24.60;67.00
12977;DHT22;6553;48.412;9.514;2023-07-13T09:36:51;24.60;66.70
12977;DHT22;6553;48.412;9.514;2023-07-13T09:39:39;24.60;66.80
12977;DHT22;6553;48.412;9.514;2023-07-13T09:42:22;24.60;66.90
12977;DHT22;6553;48.412;9.514;2023-07-13T09:44:56;24.60;67.00
12977;DHT22;6553;48.412;9.514;2023-07-13T09:47:29;24.60;67.00
12977;DHT22;6553;48.412;9.514;2023-07-13T09:50:04;24.60;67.10
12977;DHT22;6553;48.412;9.514;2023-07-13T09:52:47;24.60;66.90
12977;DHT22;6553;48.412;9.514;2023-07-13T09:57:49;24.70;67.60
12977;DHT22;6553;48.412;9.514;2023-07-13T10:00:27;24.60;66.60
12977;DHT22;6553;48.412;9.514;2023-07-13T10:03:14;24.60;66.40
12977;DHT22;6553;48.412;9.514;2023-07-13T10:05:49;24.60;66.10
12977;DHT22;6553;48.412;9.514;2023-07-13T10:08:25;24.60;66.50
12977;DHT22;6553;48.412;9.514;2023-07-13T10:11:01;24.60;66.40
12977;DHT22;6553;48.412;9.514;2023-07-13T10:13:53;24.60;66.60
12977;DHT22;6553;48.412;9.514;2023-07-13T10:16:27;24.60;66.20
12977;DHT22;6553;48.412;9.514;2023-07-13T10:19:00;24.60;66.30
12977;DHT22;6553;48.412;9.514;2023-07-13T10:21:42;24.60;66.30
12977;DHT22;6553;48.412;9.514;2023-07-13T10:24:22;24.60;65.90
12977;DHT22;6553;48.412;9.514;2023-07-13T10:32:24;24.60;66.20
12977;DHT22;6553;48.412;9.514;2023-07-13T10:34:50;24.60;66.30
12977;DHT22;6553;48.412;9.514;2023-07-13T10:37:43;24.60;66.50
12977;DHT22;6553;48.412;9.514;2023-07-13T10:40:24;24.70;66.10
12977;DHT22;6553;48.412;9.514;2023-07-13T10:42:57;24.60;65.80
12977;DHT22;6553;48.412;9.514;2023-07-13T10:45:29;24.70;65.90
12977;DHT22;6553;48.412;9.514;2023-07-13T10:47:59;24.70;65.90
12977;DHT22;6553;48.412;9.514;2023-07-13T10:50:28;24.70;65.90
12977;DHT22;6553;48.412;9.514;2023-07-13T10:53:02;24.70;66.00
12977;DHT22;6553;48.412;9.514;2023-07-13T10:58:41;24.70;66.10
12977;DHT22;6553;48.412;9.514;2023-07-13T11:01:17;24.70;65.90
12977;DHT22;6553;48.412;9.514;2023-07-13T11:21:29;24.70;65.90
12977;DHT22;6553;48.412;9.514;2023-07-13T11:31:59;24.70;65.40
12977;DHT22;6553;48.412;9.514;2023-07-13T11:34:44;24.70;65.40
12977;DHT22;6553;48.412;9.514;2023-07-13T11:37:12;24.70;65.50
12977;DHT22;6553;48.412;9.514;2023-07-13T11:39:44;24.60;65.10
12977;DHT22;6553;48.412;9.514;2023-07-13T11:42:14;24.60;65.50
12977;DHT22;6553;48.412;9.514;2023-07-13T11:44:52;24.60;65.80
12977;DHT22;6553;48.412;9.514;2023-07-13T11:47:22;24.60;65.40
12977;DHT22;6553;48.412;9.514;2023-07-13T11:49:52;24.70;65.10
12977;DHT22;6553;48.412;9.514;2023-07-13T11:52:23;24.60;65.00
12977;DHT22;6553;48.412;9.514;2023-07-13T11:55:00;24.60;64.90
12977;DHT22;6553;48.412;9.514;2023-07-13T11:57:30;24.70;64.50
12977;DHT22;6553;48.412;9.514;2023-07-13T12:00:02;24.70;65.50
12977;DHT22;6553;48.412;9.514;2023-07-13T12:02:39;24.60;64.50
12977;DHT22;6553;48.412;9.514;2023-07-13T12:05:12;24.70;64.60
12977;DHT22;6553;48.412;9.514;2023-07-13T12:07:40;24.70;64.70
12977;DHT22;6553;48.412;9.514;2023-07-13T12:10:26;24.70;64.70
12977;DHT22;6553;48.412;9.514;2023-07-13T12:13:03;24.60;64.90
12977;DHT22;6553;48.412;9.514;2023-07-13T12:18:09;24.60;64.60
12977;DHT22;6553;48.412;9.514;2023-07-13T12:20:38;24.70;64.70
12977;DHT22;6553;48.412;9.514;2023-07-13T12:23:24;24.70;64.90
12977;DHT22;6553;48.412;9.514;2023-07-13T12:25:53;24.60;64.30
12977;DHT22;6553;48.412;9.514;2023-07-13T12:28:51;24.70;64.50
12977;DHT22;6553;48.412;9.514;2023-07-13T12:34:17;24.70;64.80
12977;DHT22;6553;48.412;9.514;2023-07-13T12:36:58;24.60;64.70
12977;DHT22;6553;48.412;9.514;2023-07-13T12:39:37;24.60;64.40
12977;DHT22;6553;48.412;9.514;2023-07-13T12:42:31;24.60;64.30
12977;DHT22;6553;48.412;9.514;2023-07-13T12:45:03;24.70;64.40
12977;DHT22;6553;48.412;9.514;2023-07-13T12:48:03;24.70;64.50
12977;DHT22;6553;48.412;9.514;2023-07-13T12:50:41;24.60;64.40
12977;DHT22;6553;48.412;9.514;2023-07-13T12:53:22;24.70;64.00
12977;DHT22;6553;48.412;9.514;2023-07-13T12:55:57;24.60;64.00
12977;DHT22;6553;48.412;9.514;2023-07-13T12:58:40;24.60;64.00
12977;DHT22;6553;48.412;9.514;2023-07-13T13:01:10;24.70;64.00
12977;DHT22;6553;48.412;9.514;2023-07-13T13:03:50;24.60;64.80
12977;DHT22;6553;48.412;9.514;2023-07-13T13:06:27;24.60;64.00
12977;DHT22;6553;48.412;9.514;2023-07-13T13:08:59;24.60;64.30
12977;DHT22;6553;48.412;9.514;2023-07-13T13:11:28;24.60;63.60
12977;DHT22;6553;48.412;9.514;2023-07-13T13:13:55;24.70;64.90
12977;DHT22;6553;48.412;9.514;2023-07-13T13:16:29;24.70;63.80
12977;DHT22;6553;48.412;9.514;2023-07-13T13:19:00;24.70;63.90
12977;DHT22;6553;48.412;9.514;2023-07-13T13:21:35;24.60;63.80
12977;DHT22;6553;48.412;9.514;2023-07-13T13:24:01;24.60;63.60
12977;DHT22;6553;48.412;9.514;2023-07-13T13:26:27;24.70;63.70
12977;DHT22;6553;48.412;9.514;2023-07-13T13:28:52;24.70;63.80
12977;DHT22;6553;48.412;9.514;2023-07-13T13:31:19;24.70;63.40
12977;DHT22;6553;48.412;9.514;2023-07-13T13:33:45;24.70;63.30
12977;DHT22;6553;48.412;9.514;2023-07-13T13:36:19;24.70;63.50
12977;DHT22;6553;48.412;9.514;2023-07-13T13:38:47;24.70;63.70
12977;DHT22;6553;48.412;9.514;2023-07-13T13:41:14;24.70;63.80
12977;DHT22;6553;48.412;9.514;2023-07-13T13:43:42;24.60;63.30
12977;DHT22;6553;48.412;9.514;2023-07-13T13:46:18;24.60;63.60
12977;DHT22;6553;48.412;9.514;2023-07-13T13:48:46;24.70;63.50
12977;DHT22;6553;48.412;9.514;2023-07-13T13:51:19;24.60;63.20
12977;DHT22;6553;48.412;9.514;2023-07-13T13:53:47;24.60;63.00
12977;DHT22;6553;48.412;9.514;2023-07-13T13:56:14;24.70;63.20
12977;DHT22;6553;48.412;9.514;2023-07-13T13:58:41;24.70;63.10
12977;DHT22;6553;48.412;9.514;2023-07-13T14:01:20;24.70;63.40
12977;DHT22;6553;48.412;9.514;2023-07-13T14:03:48;24.70;63.40
12977;DHT22;6553;48.412;9.514;2023-07-13T14:06:16;24.70;62.90
12977;DHT22;6553;48.412;9.514;2023-07-13T14:08:45;24.70;62.80
12977;DHT22;6553;48.412;9.514;2023-07-13T14:11:14;24.70;62.80
12977;DHT22;6553;48.412;9.514;2023-07-13T14:13:54;24.70;62.50
12977;DHT22;6553;48.412;9.514;2023-07-13T14:16:25;24.60;62.70
12977;DHT22;6553;48.412;9.514;2023-07-13T14:18:53;24.60;62.90
12977;DHT22;6553;48.412;9.514;2023-07-13T14:21:22;24.60;63.00
12977;DHT22;6553;48.412;9.514;2023-07-13T14:23:48;24.60;63.10
12977;DHT22;6553;48.412;9.514;2023-07-13T14:26:24;24.70;63.00
12977;DHT22;6553;48.412;9.514;2023-07-13T14:28:54;24.60;62.60
12977;DHT22;6553;48.412;9.514;2023-07-13T14:31:22;24.60;62.60
12977;DHT22;6553;48.412;9.514;2023-07-13T14:33:49;24.60;62.60
12977;DHT22;6553;48.412;9.514;2023-07-13T14:38:53;24.60;62.70
12977;DHT22;6553;48.412;9.514;2023-07-13T14:41:19;24.60;62.30
12977;DHT22;6553;48.412;9.514;2023-07-13T14:43:46;24.70;62.60
12977;DHT22;6553;48.412;9.514;2023-07-13T14:46:34;24.70;62.70
12977;DHT22;6553;48.412;9.514;2023-07-13T14:49:03;24.60;62.90
12977;DHT22;6553;48.412;9.514;2023-07-13T14:51:33;24.60;62.90
12977;DHT22;6553;48.412;9.514;2023-07-13T14:54:05;24.70;62.80
12977;DHT22;6553;48.412;9.514;2023-07-13T14:56:31;24.60;62.70
12977;DHT22;6553;48.412;9.514;2023-07-13T14:58:57;24.60;62.70
12977;DHT22;6553;48.412;9.514;2023-07-13T15:01:23;24.60;62.70
12977;DHT22;6553;48.412;9.514;2023-07-13T15:03:51;24.70;62.70
12977;DHT22;6553;48.412;9.514;2023-07-13T15:06:18;24.60;62.70
12977;DHT22;6553;48.412;9.514;2023-07-13T15:08:45;24.60;62.60
12977;DHT22;6553;48.412;9.514;2023-07-13T15:11:12;24.70;62.40
12977;DHT22;6553;48.412;9.514;2023-07-13T15:13:39;24.60;62.40
12977;DHT22;6553;48.412;9.514;2023-07-13T15:16:32;24.60;62.20
12977;DHT22;6553;48.412;9.514;2023-07-13T15:18:58;24.60;61.90
12977;DHT22;6553;48.412;9.514;2023-07-13T15:21:24;24.60;62.40
12977;DHT22;6553;48.412;9.514;2023-07-13T15:23:51;24.60;62.30
12977;DHT22;6553;48.412;9.514;2023-07-13T15:26:18;24.60;62.00
12977;DHT22;6553;48.412;9.514;2023-07-13T15:28:45;24.60;62.20
12977;DHT22;6553;48.412;9.514;2023-07-13T15:31:24;24.60;62.10
12977;DHT22;6553;48.412;9.514;2023-07-13T15:33:56;24.60;62.20
12977;DHT22;6553;48.412;9.514;2023-07-13T15:36:25;24.60;62.20
12977;DHT22;6553;48.412;9.514;2023-07-13T15:38:53;24.60;62.20
12977;DHT22;6553;48.412;9.514;2023-07-13T15:41:26;24.60;62.20
12977;DHT22;6553;48.412;9.514;2023-07-13T15:43:55;24.60;62.00
12977;DHT22;6553;48.412;9.514;2023-07-13T15:46:27;24.60;61.20
12977;DHT22;6553;48.412;9.514;2023-07-13T15:48:54;24.60;61.60
12977;DHT22;6553;48.412;9.514;2023-07-13T15:51:30;24.60;61.50
12977;DHT22;6553;48.412;9.514;2023-07-13T15:54:04;24.60;61.00
12977;DHT22;6553;48.412;9.514;2023-07-13T15:56:36;24.60;61.00
12977;DHT22;6553;48.412;9.514;2023-07-13T15:59:03;24.60;61.20
12977;DHT22;6553;48.412;9.514;2023-07-13T16:01:30;24.60;61.10
12977;DHT22;6553;48.412;9.514;2023-07-13T16:03:57;24.60;61.40
12977;DHT22;6553;48.412;9.514;2023-07-13T16:06:26;24.60;61.40
12977;DHT22;6553;48.412;9.514;2023-07-13T16:08:57;24.60;61.60
12977;DHT22;6553;48.412;9.514;2023-07-13T16:11:28;24.60;61.70
12977;DHT22;6553;48.412;9.514;2023-07-13T16:13:58;24.60;61.30
12977;DHT22;6553;48.412;9.514;2023-07-13T16:16:30;24.60;61.50
12977;DHT22;6553;48.412;9.514;2023-07-13T16:18:59;24.60;61.30
12977;DHT22;6553;48.412;9.514;2023-07-13T16:21:29;24.60;61.40
12977;DHT22;6553;48.412;9.514;2023-07-13T16:24:00;24.60;61.20
12977;DHT22;6553;48.412;9.514;2023-07-13T16:26:29;24.60;61.10
12977;DHT22;6553;48.412;9.514;2023-07-13T16:29:25;24.60;61.00
12977;DHT22;6553;48.412;9.514;2023-07-13T16:32:04;24.60;61.40
12977;DHT22;6553;48.412;9.514;2023-07-13T16:34:34;24.60;61.50
12977;DHT22;6553;48.412;9.514;2023-07-13T16:37:03;24.60;61.70
12977;DHT22;6553;48.412;9.514;2023-07-13T16:39:44;24.60;61.70
12977;DHT22;6553;48.412;9.514;2023-07-13T16:42:12;24.60;61.60
12977;DHT22;6553;48.412;9.514;2023-07-13T16:44:38;24.60;61.20
12977;DHT22;6553;48.412;9.514;2023-07-13T16:47:12;24.60;61.20
12977;DHT22;6553;48.412;9.514;2023-07-13T16:49:40;24.60;60.90
12977;DHT22;6553;48.412;9.514;2023-07-13T16:52:10;24.60;61.10
12977;DHT22;6553;48.412;9.514;2023-07-13T16:54:38;24.60;61.20